createdAt,value
2019-02-17T00:00:34.908Z,37.73
2019-02-17T00:03:03.464Z,37.47
2019-02-17T00:05:32.949Z,35.07
2019-02-17T00:08:00.929Z,32.60
2019-02-17T00:10:40.095Z,33.87
2019-02-17T00:14:07.369Z,36.43
2019-02-17T00:16:40.582Z,33.10
2019-02-17T00:19:08.604Z,36.73
2019-02-17T00:21:36.341Z,33.03
2019-02-17T00:24:04.790Z,32.03
2019-02-17T00:26:33.876Z,34.47
2019-02-17T00:29:02.228Z,34.67
2019-02-17T00:31:33.901Z,34.60
2019-02-17T00:34:03.328Z,34.77
2019-02-17T00:36:31.480Z,33.93
2019-02-17T00:39:00.168Z,35.27
2019-02-17T00:41:42.979Z,35.10
2019-02-17T00:44:11.130Z,36.33
2019-02-17T00:46:39.164Z,37.80
2019-02-17T00:49:07.676Z,36.17
2019-02-17T00:51:36.373Z,37.73
2019-02-17T00:54:08.249Z,34.30
2019-02-17T00:57:03.545Z,38.13
2019-02-17T00:59:21.769Z,35.40
2019-02-17T01:04:38.988Z,36.80
2019-02-17T01:07:07.823Z,35.43
2019-02-17T01:09:35.741Z,38.27
2019-02-17T01:12:04.732Z,35.33
2019-02-17T01:14:32.947Z,40.30
2019-02-17T01:17:01.387Z,38.60
2019-02-17T01:19:29.783Z,39.73
2019-02-17T01:21:58.280Z,36.53
2019-02-17T01:24:29.901Z,38.30
2019-02-17T01:26:58.025Z,41.27
2019-02-17T01:29:26.065Z,36.07
2019-02-17T01:31:54.459Z,35.50
2019-02-17T01:34:22.474Z,36.57
2019-02-17T01:36:50.735Z,38.33
2019-02-17T01:39:21.486Z,33.83
2019-02-17T01:41:50.663Z,33.50
2019-02-17T01:44:19.806Z,31.07
2019-02-17T01:46:48.232Z,36.53
2019-02-17T01:49:20.887Z,33.87
2019-02-17T01:51:48.908Z,35.23
2019-02-17T01:54:17.363Z,35.97
2019-02-17T01:56:45.714Z,36.97
2019-02-17T01:59:13.858Z,33.63
2019-02-17T02:01:46.039Z,33.20
2019-02-17T02:04:14.624Z,33.07
2019-02-17T02:06:44.039Z,37.27
2019-02-17T02:09:12.080Z,35.90
2019-02-17T02:11:42.340Z,37.53
2019-02-17T02:14:12.294Z,38.60
2019-02-17T02:16:42.159Z,38.83
2019-02-17T02:19:10.332Z,37.37
2019-02-17T02:21:41.658Z,37.37
2019-02-17T02:24:09.800Z,40.23
2019-02-17T02:26:38.246Z,37.80
2019-02-17T02:29:06.594Z,42.63
2019-02-17T02:31:35.500Z,42.03
2019-02-17T02:34:06.222Z,43.10
2019-02-17T02:36:35.165Z,41.93
2019-02-17T02:39:05.591Z,43.80
2019-02-17T02:41:35.187Z,45.87
2019-02-17T02:44:04.575Z,46.60
2019-02-17T02:46:39.870Z,42.40
2019-02-17T02:49:08.788Z,43.13
2019-02-17T02:51:37.501Z,46.27
2019-02-17T02:54:06.885Z,47.83
2019-02-17T02:56:39.546Z,51.87
2019-02-17T02:59:08.215Z,50.87
2019-02-17T03:01:39.055Z,44.80
2019-02-17T03:04:11.835Z,45.77
2019-02-17T03:09:45.865Z,45.83
2019-02-17T03:12:13.663Z,47.87
2019-02-17T03:14:42.842Z,47.67
2019-02-17T03:17:14.665Z,47.03
2019-02-17T03:19:42.977Z,45.20
2019-02-17T03:22:18.737Z,48.80
2019-02-17T03:25:22.713Z,50.20
2019-02-17T03:28:02.874Z,47.27
2019-02-17T03:30:42.489Z,47.77
2019-02-17T03:33:33.104Z,48.17
2019-02-17T03:36:03.267Z,52.87
2019-02-17T03:38:37.703Z,49.83
2019-02-17T03:41:13.315Z,50.07
2019-02-17T03:43:42.970Z,47.97
2019-02-17T03:46:12.164Z,49.07
2019-02-17T03:48:40.588Z,47.57
2019-02-17T03:51:14.581Z,45.60
2019-02-17T03:53:45.728Z,45.03
2019-02-17T03:56:13.828Z,49.80
2019-02-17T03:58:46.592Z,47.20
2019-02-17T04:01:15.274Z,46.70
2019-02-17T04:03:47.131Z,49.07
2019-02-17T04:06:15.032Z,51.37
2019-02-17T04:08:44.114Z,47.30
2019-02-17T04:11:12.883Z,44.40
2019-02-17T04:13:44.401Z,48.00
2019-02-17T04:16:12.260Z,47.93
2019-02-17T04:18:44.730Z,43.93
2019-02-17T04:21:13.329Z,47.83
2019-02-17T04:23:42.139Z,45.50
2019-02-17T04:26:12.133Z,46.13
2019-02-17T04:28:39.917Z,44.30
2019-02-17T04:31:10.361Z,48.73
2019-02-17T04:33:38.813Z,48.27
2019-02-17T04:36:09.498Z,47.07
2019-02-17T04:38:38.113Z,48.20
2019-02-17T04:41:07.010Z,47.37
2019-02-17T04:43:37.754Z,48.53
2019-02-17T04:46:05.573Z,47.87
2019-02-17T04:48:35.046Z,47.70
2019-02-17T04:51:22.887Z,46.93
2019-02-17T05:06:02.482Z,56.30
2019-02-17T05:08:34.037Z,57.67
2019-02-17T05:11:09.239Z,54.00
2019-02-17T05:13:50.588Z,54.03
2019-02-17T05:16:22.770Z,53.90
2019-02-17T05:22:16.137Z,61.47
2019-02-17T05:24:44.002Z,58.27
2019-02-17T05:27:54.361Z,57.27
2019-02-17T05:30:25.736Z,51.13
2019-02-17T05:33:03.347Z,52.33
2019-02-17T05:35:29.904Z,51.90
2019-02-17T05:37:58.627Z,53.37
2019-02-17T05:40:27.214Z,52.53
2019-02-17T05:43:00.072Z,58.90
2019-02-17T05:45:30.725Z,58.10
2019-02-17T05:48:04.595Z,53.00
2019-02-17T05:50:32.841Z,59.83
2019-02-17T05:56:31.132Z,54.10
2019-02-17T05:59:04.669Z,58.00
2019-02-17T06:01:35.775Z,57.23
2019-02-17T06:04:12.614Z,57.67
2019-02-17T06:06:48.119Z,58.77
2019-02-17T06:09:16.571Z,60.77
2019-02-17T06:11:45.269Z,62.60
2019-02-17T06:14:13.121Z,53.27
2019-02-17T06:16:43.561Z,55.87
2019-02-17T06:19:11.846Z,60.20
2019-02-17T06:25:28.823Z,62.43
2019-02-17T06:27:58.552Z,62.37
2019-02-17T06:30:27.707Z,54.47
2019-02-17T06:34:58.258Z,55.83
2019-02-17T06:42:39.112Z,60.97
2019-02-17T06:45:28.512Z,59.30
2019-02-17T06:47:59.753Z,57.40
2019-02-17T06:50:38.353Z,61.60
2019-02-17T06:53:31.805Z,60.57
2019-02-17T06:56:09.054Z,53.83
2019-02-17T06:59:12.818Z,61.97
2019-02-17T07:01:32.457Z,61.57
2019-02-17T07:10:33.188Z,58.07
2019-02-17T07:13:33.575Z,59.50
2019-02-17T07:16:12.493Z,55.57
2019-02-17T07:18:59.543Z,58.47
2019-02-17T07:28:33.848Z,53.83
2019-02-17T07:38:00.632Z,52.30
2019-02-17T07:41:11.543Z,51.00
2019-02-17T07:43:52.732Z,47.50
2019-02-17T07:46:25.165Z,48.23
2019-02-17T07:51:43.970Z,43.40
2019-02-17T07:54:32.615Z,46.27
2019-02-17T07:57:01.675Z,43.63
2019-02-17T07:59:30.748Z,43.00
2019-02-17T08:02:01.662Z,42.27
2019-02-17T08:04:36.311Z,43.43
2019-02-17T08:07:06.403Z,41.70
2019-02-17T08:09:36.213Z,36.83
2019-02-17T08:15:25.178Z,39.97
2019-02-17T08:17:54.505Z,35.10
2019-02-17T08:20:33.482Z,34.97
2019-02-17T08:23:28.777Z,35.17
2019-02-17T08:25:36.769Z,35.77
2019-02-17T08:28:16.410Z,36.77
2019-02-17T08:30:44.618Z,33.40
2019-02-17T08:33:15.315Z,35.17
2019-02-17T08:35:43.673Z,32.67
2019-02-17T08:38:15.978Z,34.70
2019-02-17T08:40:44.380Z,33.67
2019-02-17T08:43:13.047Z,32.83
2019-02-17T08:45:44.173Z,35.27
2019-02-17T08:48:14.682Z,36.47
2019-02-17T08:50:43.544Z,33.83
2019-02-17T08:53:13.415Z,37.03
2019-02-17T08:55:43.399Z,32.30
2019-02-17T08:58:16.045Z,35.57
2019-02-17T09:00:44.753Z,30.30
2019-02-17T09:03:16.007Z,33.03
2019-02-17T09:05:55.817Z,32.03
2019-02-17T09:08:38.423Z,33.13
2019-02-17T09:11:08.958Z,34.07
2019-02-17T09:13:42.312Z,31.00
2019-02-17T09:16:12.311Z,30.20
2019-02-17T09:18:40.908Z,31.87
2019-02-17T09:21:10.229Z,30.13
2019-02-17T09:23:38.831Z,32.17
2019-02-17T09:26:18.403Z,31.07
2019-02-17T09:28:46.983Z,31.93
2019-02-17T09:31:44.306Z,32.50
2019-02-17T09:37:21.840Z,32.37
2019-02-17T09:40:19.961Z,34.10
2019-02-17T09:43:07.089Z,32.97
2019-02-17T09:45:39.032Z,33.67
2019-02-17T09:48:37.780Z,33.43
2019-02-17T09:50:37.924Z,34.20
2019-02-17T09:53:58.605Z,34.57
2019-02-17T09:55:42.653Z,34.43
2019-02-17T09:58:12.570Z,35.67
2019-02-17T10:00:40.913Z,31.70
2019-02-17T10:03:12.097Z,32.97
2019-02-17T10:05:42.415Z,35.83
2019-02-17T10:08:29.682Z,36.30
2019-02-17T10:11:23.245Z,39.30
2019-02-17T10:13:51.783Z,33.07
2019-02-17T10:16:23.009Z,35.17
2019-02-17T10:18:51.314Z,38.20
2019-02-17T10:21:19.428Z,37.00
2019-02-17T10:23:47.507Z,34.07
2019-02-17T10:26:15.818Z,37.27
2019-02-17T10:28:44.199Z,35.90
2019-02-17T10:31:22.218Z,35.37
2019-02-17T10:33:51.539Z,36.80
2019-02-17T10:36:22.232Z,36.20
2019-02-17T10:38:51.066Z,34.83
2019-02-17T10:41:23.215Z,37.37
2019-02-17T10:43:51.563Z,36.67
2019-02-17T10:46:19.451Z,37.10
2019-02-17T10:48:48.354Z,34.70
2019-02-17T10:51:16.613Z,34.67
2019-02-17T10:53:44.403Z,31.50
2019-02-17T10:56:12.670Z,36.67
2019-02-17T10:58:42.285Z,33.77
2019-02-17T11:01:10.448Z,34.03
2019-02-17T11:03:53.055Z,35.97
2019-02-17T11:06:56.346Z,33.33
2019-02-17T11:09:47.716Z,34.33
2019-02-17T11:12:15.938Z,35.10
2019-02-17T11:15:27.140Z,35.10
2019-02-17T11:17:56.250Z,35.83
2019-02-17T11:20:24.716Z,31.37
2019-02-17T11:22:53.381Z,30.03
2019-02-17T11:25:22.358Z,34.77
2019-02-17T11:27:51.730Z,31.20
2019-02-17T11:30:24.828Z,32.20
2019-02-17T11:33:12.578Z,34.90
2019-02-17T11:35:41.312Z,32.07
2019-02-17T11:38:31.869Z,34.53
2019-02-17T11:41:24.473Z,35.17
2019-02-17T11:43:52.705Z,30.13
2019-02-17T11:46:22.041Z,30.63
2019-02-17T11:48:51.730Z,33.77
2019-02-17T11:51:25.332Z,32.43
2019-02-17T11:53:55.895Z,30.93
2019-02-17T11:56:26.087Z,30.03
2019-02-17T11:59:01.487Z,30.33
2019-02-17T12:01:38.266Z,31.67
2019-02-17T12:04:09.646Z,32.30
2019-02-17T12:06:49.085Z,29.57
2019-02-17T12:09:31.611Z,29.97
2019-02-17T12:12:03.371Z,30.37
2019-02-17T12:14:48.127Z,30.03
2019-02-17T12:17:16.626Z,30.70
2019-02-17T12:19:45.147Z,29.87
2019-02-17T12:22:38.895Z,30.40
2019-02-17T12:25:27.151Z,31.87
2019-02-17T12:28:09.216Z,30.30
2019-02-17T12:30:51.942Z,29.50
2019-02-17T12:33:27.876Z,27.30
2019-02-17T12:35:58.537Z,31.83
2019-02-17T12:38:36.068Z,31.80
2019-02-17T12:41:07.009Z,31.87
2019-02-17T12:43:37.532Z,33.97
2019-02-17T12:46:08.409Z,30.67
2019-02-17T12:48:39.861Z,31.60
2019-02-17T12:51:28.744Z,28.93
2019-02-17T12:53:58.055Z,30.10
2019-02-17T12:56:29.358Z,32.40
2019-02-17T13:02:40.406Z,31.17
2019-02-17T13:05:12.677Z,30.17
2019-02-17T13:07:42.702Z,30.43
2019-02-17T13:20:33.488Z,27.73
2019-02-17T13:39:09.074Z,25.20
2019-02-17T13:41:39.792Z,24.97
2019-02-17T13:44:08.672Z,24.37
2019-02-17T13:46:39.974Z,25.57
2019-02-17T13:49:21.870Z,23.87
2019-02-17T13:51:53.827Z,26.80
2019-02-17T13:54:28.555Z,23.00
2019-02-17T13:56:56.914Z,24.03
2019-02-17T13:59:59.446Z,22.63
2019-02-17T14:02:29.399Z,24.07
2019-02-17T14:04:58.356Z,24.70
2019-02-17T14:10:41.533Z,23.10
2019-02-17T14:13:10.470Z,21.30
2019-02-17T14:15:48.161Z,25.27
2019-02-17T14:18:12.158Z,23.53
2019-02-17T14:20:40.537Z,23.60
2019-02-17T14:23:09.298Z,21.50
2019-02-17T14:25:40.739Z,25.27
2019-02-17T14:28:09.399Z,22.27
2019-02-17T14:30:38.423Z,21.63
2019-02-17T14:33:23.519Z,27.07
2019-02-17T14:36:13.073Z,21.40
2019-02-17T14:38:45.191Z,20.03
2019-02-17T14:41:24.532Z,21.40
2019-02-17T14:43:53.568Z,21.90
2019-02-17T14:46:22.643Z,24.70
2019-02-17T14:48:58.594Z,23.03
2019-02-17T14:51:24.075Z,21.47
2019-02-17T14:54:10.105Z,20.97
2019-02-17T14:56:41.521Z,24.77
2019-02-17T14:59:11.398Z,21.83
2019-02-17T15:01:54.311Z,22.67
2019-02-17T15:04:25.292Z,23.03
2019-02-17T15:07:40.354Z,22.87
2019-02-17T15:09:58.217Z,22.53
2019-02-17T15:13:11.646Z,22.30
2019-02-17T15:15:35.744Z,24.60
2019-02-17T15:18:42.895Z,22.90
2019-02-17T15:21:23.532Z,20.77
2019-02-17T15:23:54.241Z,22.20
2019-02-17T15:29:12.625Z,21.53
2019-02-17T15:31:41.549Z,22.70
2019-02-17T15:34:18.531Z,27.07
2019-02-17T15:36:46.003Z,25.00
2019-02-17T15:39:16.486Z,24.23
2019-02-17T15:41:47.301Z,25.27
2019-02-17T15:44:16.615Z,24.60
2019-02-17T15:46:46.165Z,25.70
2019-02-17T15:49:15.245Z,28.17
2019-02-17T15:51:45.680Z,26.03
2019-02-17T15:54:18.796Z,25.83
2019-02-17T15:56:47.021Z,28.73
2019-02-17T15:59:16.545Z,28.17
2019-02-17T16:01:44.385Z,29.20
2019-02-17T16:04:12.706Z,27.20
2019-02-17T16:06:41.678Z,32.27
2019-02-17T16:09:09.535Z,27.27
2019-02-17T16:11:38.667Z,27.10
2019-02-17T16:14:16.892Z,24.47
2019-02-17T16:16:47.482Z,27.73
2019-02-17T16:19:15.946Z,26.40
2019-02-17T16:21:43.888Z,27.13
2019-02-17T16:24:11.620Z,27.87
2019-02-17T16:26:42.343Z,28.77
2019-02-17T16:29:11.027Z,29.03
2019-02-17T16:31:40.315Z,28.30
2019-02-17T16:34:08.529Z,31.03
2019-02-17T16:36:37.252Z,28.20
2019-02-17T16:39:15.633Z,28.37
2019-02-17T16:45:55.000Z,30.53
2019-02-17T16:48:45.397Z,29.77
2019-02-17T16:51:09.117Z,28.93
2019-02-17T16:53:37.236Z,26.73
2019-02-17T16:56:06.027Z,28.83
2019-02-17T16:58:34.249Z,27.27
2019-02-17T17:01:42.749Z,29.43
2019-02-17T17:04:16.621Z,26.33
2019-02-17T17:06:42.438Z,30.43
2019-02-17T17:09:17.457Z,32.70
2019-02-17T17:11:42.176Z,31.10
2019-02-17T17:14:10.511Z,29.63
2019-02-17T17:16:41.893Z,26.80
2019-02-17T17:19:12.710Z,28.93
2019-02-17T17:21:44.027Z,33.23
2019-02-17T17:24:25.840Z,28.10
2019-02-17T17:27:33.414Z,30.87
2019-02-17T17:30:02.645Z,29.57
2019-02-17T17:32:36.055Z,30.57
2019-02-17T17:35:07.299Z,29.57
2019-02-17T17:37:36.429Z,32.23
2019-02-17T17:40:05.354Z,27.37
2019-02-17T17:42:33.202Z,26.97
2019-02-17T17:45:02.007Z,33.17
2019-02-17T17:48:14.814Z,30.53
2019-02-17T17:50:43.509Z,28.43
2019-02-17T17:56:02.045Z,30.60
2019-02-17T17:58:33.416Z,28.57
2019-02-17T18:01:02.420Z,31.67
2019-02-17T18:03:30.711Z,29.43
2019-02-17T18:06:01.841Z,29.93
2019-02-17T18:08:40.438Z,32.73
2019-02-17T18:11:09.066Z,29.67
2019-02-17T18:13:41.554Z,32.17
2019-02-17T18:16:39.373Z,32.60
2019-02-17T18:19:08.543Z,31.97
2019-02-17T18:21:37.162Z,34.53
2019-02-17T18:24:15.124Z,27.77
2019-02-17T18:37:44.011Z,31.07
2019-02-17T18:43:49.580Z,34.03
2019-02-17T18:46:26.402Z,31.50
2019-02-17T18:48:55.394Z,28.53
2019-02-17T18:51:23.444Z,28.93
2019-02-17T18:53:51.762Z,31.83
2019-02-17T18:56:21.075Z,35.63
2019-02-17T18:58:53.259Z,32.53
2019-02-17T19:01:21.656Z,29.60
2019-02-17T19:04:04.158Z,31.63
2019-02-17T19:13:22.677Z,34.20
2019-02-17T19:15:56.211Z,34.13
2019-02-17T19:18:50.975Z,30.60
2019-02-17T19:21:19.526Z,29.37
2019-02-17T19:23:59.489Z,31.57
2019-02-17T19:33:18.142Z,30.70
2019-02-17T19:36:03.937Z,30.93
2019-02-17T19:38:53.279Z,33.27
2019-02-17T19:41:18.144Z,32.43
2019-02-17T19:43:47.781Z,31.80
2019-02-17T19:46:39.093Z,31.87
2019-02-17T19:49:08.746Z,29.20
2019-02-17T19:51:38.076Z,30.83
2019-02-17T19:54:08.161Z,28.47
2019-02-17T19:56:39.667Z,32.73
2019-02-17T19:59:11.122Z,30.20
2019-02-17T20:01:49.809Z,30.83
2019-02-17T20:04:33.928Z,31.73
2019-02-17T20:07:22.997Z,34.13
2019-02-17T20:10:26.299Z,33.20
2019-02-17T20:16:04.789Z,29.47
2019-02-17T20:18:36.075Z,33.03
2019-02-17T20:21:09.464Z,30.90
2019-02-17T20:23:41.762Z,32.57
2019-02-17T20:26:11.255Z,31.33
2019-02-17T20:28:44.929Z,27.07
2019-02-17T20:31:16.104Z,31.93
2019-02-17T20:33:51.038Z,30.50
2019-02-17T20:36:17.298Z,31.70
2019-02-17T20:38:58.596Z,33.23
2019-02-17T20:41:30.925Z,30.03
2019-02-17T20:44:21.442Z,28.80
2019-02-17T20:46:56.429Z,31.53
2019-02-17T20:49:27.888Z,29.60
2019-02-17T20:52:03.715Z,30.97
2019-02-17T20:54:40.777Z,31.53
2019-02-17T20:57:10.735Z,29.87
2019-02-17T20:59:38.825Z,30.97
2019-02-17T21:02:07.227Z,31.03
2019-02-17T21:04:35.204Z,36.43
2019-02-17T21:07:06.922Z,31.50
2019-02-17T21:09:35.280Z,28.90
2019-02-17T21:12:05.255Z,32.10
2019-02-17T21:17:55.028Z,29.50
2019-02-17T21:20:26.030Z,29.13
2019-02-17T21:23:01.448Z,28.03
2019-02-17T21:25:35.218Z,29.43
2019-02-17T21:28:03.934Z,26.57
2019-02-17T21:30:32.963Z,28.73
2019-02-17T21:33:01.745Z,30.20
2019-02-17T21:35:34.464Z,33.00
2019-02-17T21:38:03.482Z,28.07
2019-02-17T21:41:15.488Z,25.63
2019-02-17T21:43:55.008Z,26.43
2019-02-17T21:46:24.225Z,26.50
2019-02-17T21:48:52.377Z,28.57
2019-02-17T21:51:22.034Z,29.57
2019-02-17T21:53:51.493Z,29.43
2019-02-17T21:56:22.697Z,33.30
2019-02-17T21:58:57.447Z,28.30
2019-02-17T22:01:27.803Z,29.10
2019-02-17T22:03:58.960Z,29.77
2019-02-17T22:06:33.441Z,29.67
2019-02-17T22:08:57.897Z,29.00
2019-02-17T22:11:28.498Z,28.03
2019-02-17T22:13:57.089Z,27.50
2019-02-17T22:16:28.025Z,28.83
2019-02-17T22:18:56.201Z,29.63
2019-02-17T22:21:24.886Z,30.53
2019-02-17T22:23:52.639Z,31.47
2019-02-17T22:26:21.206Z,30.90
2019-02-17T22:28:52.178Z,28.77
2019-02-17T22:31:22.109Z,27.77
2019-02-17T22:33:51.351Z,31.30
2019-02-17T22:36:19.857Z,29.87
2019-02-17T22:38:48.401Z,28.50
2019-02-17T22:41:16.926Z,33.03
2019-02-17T22:43:45.323Z,31.27
2019-02-17T22:46:14.032Z,29.40
2019-02-17T22:48:42.369Z,28.90
2019-02-17T22:51:11.188Z,27.80
2019-02-17T22:53:43.665Z,28.63
2019-02-17T22:56:12.101Z,30.23
2019-02-17T22:58:40.324Z,32.13
2019-02-17T23:01:11.578Z,34.73
2019-02-17T23:03:40.512Z,32.63
2019-02-17T23:06:08.996Z,28.40
2019-02-17T23:08:37.379Z,29.13
2019-02-17T23:11:05.497Z,31.93
2019-02-17T23:13:34.083Z,31.70
2019-02-17T23:16:03.093Z,33.03
2019-02-17T23:18:31.452Z,29.37
2019-02-17T23:20:59.765Z,31.67
2019-02-17T23:23:28.917Z,30.47
2019-02-17T23:26:00.254Z,31.80
2019-02-17T23:28:29.208Z,30.33
2019-02-17T23:30:57.298Z,31.70
2019-02-17T23:33:25.475Z,26.70
2019-02-17T23:35:53.439Z,30.47
2019-02-17T23:38:23.189Z,30.77
2019-02-17T23:40:51.226Z,31.40
2019-02-17T23:43:19.616Z,29.80
2019-02-17T23:45:47.445Z,27.70
2019-02-17T23:48:16.740Z,29.63
2019-02-17T23:50:44.793Z,30.67
2019-02-17T23:53:12.600Z,31.67
2019-02-17T23:55:40.735Z,30.40
2019-02-17T23:58:08.938Z,29.87
